Time;durP1;ratioP1;P1;durP2;ratioP2;P2;SDS_P1;SDS_P2;PMS_P1;PMS_P2;Temp;Humidity;BMP_temperature;BMP_pressure;BME280_temperature;BME280_humidity;BME280_pressure;Samples;Min_cycle;Max_cycle;Signal;HPM_P1;HPM_P2
2022/08/09 00:01:32;;;;;;;2.17;0.60;;;28.70;48.70;;;;;;10401673;28;20124;-29
2022/08/09 00:06:34;;;;;;;3.20;0.85;;;28.70;48.80;;;;;;10402237;28;20132;-33
2022/08/09 00:11:37;;;;;;;1.05;0.40;;;28.70;48.80;;;;;;10401161;28;20150;-28
2022/08/09 00:16:39;;;;;;;1.80;0.52;;;28.70;48.80;;;;;;10403323;28;20045;-32
2022/08/09 00:21:41;;;;;;;1.13;0.40;;;28.60;48.80;;;;;;10402664;28;20145;-31
2022/08/09 00:26:44;;;;;;;1.25;0.60;;;28.50;48.80;;;;;;10403782;28;20692;-34
2022/08/09 00:31:46;;;;;;;1.85;0.60;;;28.50;48.90;;;;;;10401974;28;20057;-27
2022/08/09 00:36:48;;;;;;;1.40;0.40;;;28.50;48.90;;;;;;10402848;28;20077;-32
2022/08/09 00:41:52;;;;;;;1.52;0.38;;;28.50;48.90;;;;;;10395542;28;20053;-27
2022/08/09 00:46:54;;;;;;;0.70;0.38;;;28.40;48.90;;;;;;10398854;28;20049;-26
2022/08/09 00:51:56;;;;;;;1.52;0.43;;;28.40;48.90;;;;;;10398171;28;20064;-30
2022/08/09 00:57:00;;;;;;;1.13;0.50;;;28.40;49.00;;;;;;10399821;28;20046;-37
2022/08/09 01:02:02;;;;;;;1.65;0.43;;;28.30;49.00;;;;;;10398460;28;20363;-29
2022/08/09 01:07:13;;;;;;;2.55;0.50;;;28.30;49.10;;;;;;10391289;28;20037;-29
2022/08/09 01:12:29;;;;;;;3.20;1.13;;;28.30;49.10;;;;;;10395949;28;20037;-34
2022/08/09 01:17:34;;;;;;;0.80;0.35;;;28.20;49.00;;;;;;10389415;28;20041;-30
2022/08/09 01:23:13;;;;;;;0.50;0.40;;;28.20;49.10;;;;;;10395485;28;20053;-31
2022/08/09 01:28:18;;;;;;;2.20;0.43;;;28.20;49.10;;;;;;10397780;28;20042;-29
2022/08/09 01:33:26;;;;;;;2.03;0.47;;;28.10;49.10;;;;;;10399953;28;20038;-30
2022/08/09 01:38:34;;;;;;;0.60;0.40;;;28.10;49.10;;;;;;10398486;28;20159;-31
2022/08/09 01:43:41;;;;;;;0.57;0.40;;;28.10;49.10;;;;;;10396781;28;20108;-28
2022/08/09 01:48:45;;;;;;;0.68;0.43;;;28.10;49.20;;;;;;10397699;28;20566;-30
2022/08/09 01:53:49;;;;;;;0.40;0.30;;;28.00;49.10;;;;;;10396927;28;20139;-27
2022/08/09 01:58:55;;;;;;;1.02;0.57;;;28.00;49.20;;;;;;10399441;28;20085;-33
2022/08/09 02:03:59;;;;;;;1.35;0.55;;;28.00;49.20;;;;;;10405625;28;20081;-32
2022/08/09 02:09:01;;;;;;;1.10;0.52;;;27.90;49.20;;;;;;10404859;28;20551;-27
2022/08/09 02:14:08;;;;;;;0.60;0.50;;;27.90;49.20;;;;;;10404545;28;20048;-27
2022/08/09 02:19:10;;;;;;;1.13;0.60;;;27.90;49.30;;;;;;10403984;28;20065;-26
2022/08/09 02:24:18;;;;;;;1.05;0.50;;;27.80;49.20;;;;;;10398553;28;20532;-32
2022/08/09 02:29:24;;;;;;;1.30;0.50;;;27.80;49.20;;;;;;10403024;28;20055;-27
2022/08/09 02:34:31;;;;;;;0.60;0.60;;;27.80;49.30;;;;;;10404110;28;20552;-33
2022/08/09 02:39:37;;;;;;;1.08;0.43;;;27.70;49.30;;;;;;10404857;28;20099;-32
2022/08/09 02:44:46;;;;;;;1.35;0.32;;;27.70;49.30;;;;;;10402227;28;20440;-27
2022/08/09 02:49:53;;;;;;;0.47;0.22;;;27.70;49.40;;;;;;10403751;28;20107;-28
2022/08/09 02:54:57;;;;;;;2.08;0.60;;;27.60;49.30;;;;;;10404126;28;20463;-34
2022/08/09 03:00:01;;;;;;;0.30;0.20;;;27.60;49.30;;;;;;10402096;28;20041;-30
2022/08/09 03:05:05;;;;;;;0.65;0.38;;;27.60;49.40;;;;;;10400843;28;20050;-39
2022/08/09 03:10:09;;;;;;;0.73;0.40;;;27.60;49.50;;;;;;10400873;28;20049;-29
2022/08/09 03:15:12;;;;;;;0.55;0.40;;;27.50;49.50;;;;;;10401571;28;20037;-28
2022/08/09 03:20:15;;;;;;;1.40;0.50;;;27.50;49.50;;;;;;10401894;28;20123;-32
2022/08/09 03:25:16;;;;;;;0.75;0.30;;;27.50;49.50;;;;;;10400966;28;20049;-29
2022/08/09 03:30:20;;;;;;;0.90;0.40;;;27.40;49.50;;;;;;10400968;28;20164;-30
2022/08/09 03:35:22;;;;;;;1.40;0.40;;;27.40;49.50;;;;;;10400664;28;20409;-27
2022/08/09 03:40:24;;;;;;;0.95;0.40;;;27.40;49.60;;;;;;10401253;28;20084;-36
2022/08/09 03:45:28;;;;;;;1.30;0.55;;;27.40;49.60;;;;;;10400214;28;20057;-31
2022/08/09 03:50:30;;;;;;;0.40;0.40;;;27.30;49.20;;;;;;10400863;28;20042;-28
2022/08/09 03:55:32;;;;;;;1.02;0.65;;;27.30;49.60;;;;;;10400018;28;20131;-27
2022/08/09 04:00:37;;;;;;;2.20;0.70;;;27.30;49.80;;;;;;10399861;28;20041;-31
2022/08/09 04:05:38;;;;;;;1.10;0.30;;;27.20;49.70;;;;;;10398441;28;20131;-28
2022/08/09 04:10:40;;;;;;;0.68;0.40;;;27.10;49.70;;;;;;10397039;28;20053;-31
2022/08/09 04:15:44;;;;;;;2.53;0.50;;;27.20;49.80;;;;;;10393136;28;20120;-27
2022/08/09 04:20:46;;;;;;;2.40;0.70;;;27.10;50.30;;;;;;10391662;28;20044;-30
2022/08/09 04:25:48;;;;;;;1.23;0.68;;;27.10;50.40;;;;;;10391827;28;20058;-34
2022/08/09 04:30:51;;;;;;;1.63;0.68;;;27.00;50.20;;;;;;10390129;28;20084;-29
2022/08/09 04:35:53;;;;;;;1.05;0.70;;;27.00;50.30;;;;;;10391306;28;20111;-30
2022/08/09 04:40:56;;;;;;;1.52;0.50;;;27.00;50.30;;;;;;10396447;28;20042;-27
2022/08/09 04:46:00;;;;;;;4.72;1.05;;;26.90;50.20;;;;;;10395944;28;20073;-32
2022/08/09 04:51:03;;;;;;;1.88;0.75;;;27.00;50.20;;;;;;10397886;28;20442;-34
2022/08/09 04:56:05;;;;;;;2.78;0.60;;;26.90;50.10;;;;;;10382939;28;20087;-30
2022/08/09 05:01:08;;;;;;;2.47;0.60;;;26.90;50.10;;;;;;10394892;28;20513;-31
2022/08/09 05:06:10;;;;;;;1.70;0.63;;;26.90;50.10;;;;;;10391580;28;20041;-31
2022/08/09 05:11:12;;;;;;;2.00;0.68;;;26.90;50.00;;;;;;10392266;28;20123;-35
2022/08/09 05:16:15;;;;;;;2.03;0.70;;;26.90;50.00;;;;;;10394508;28;20075;-29
2022/08/09 05:21:18;;;;;;;2.45;0.88;;;26.90;50.00;;;;;;10395205;28;20069;-31
2022/08/09 05:26:19;;;;;;;1.52;0.65;;;26.90;49.90;;;;;;10396726;28;20056;-25
2022/08/09 05:31:23;;;;;;;1.80;0.80;;;26.90;50.00;;;;;;10392679;28;20143;-28
2022/08/09 05:36:24;;;;;;;3.05;0.80;;;27.00;50.10;;;;;;10401776;28;20128;-31
2022/08/09 05:41:26;;;;;;;4.15;0.93;;;27.00;50.00;;;;;;10404642;28;20053;-30
2022/08/09 05:46:30;;;;;;;2.92;0.70;;;27.00;50.00;;;;;;10399880;28;20490;-33
2022/08/09 05:51:32;;;;;;;2.33;0.80;;;27.00;50.10;;;;;;10400338;28;20037;-32
2022/08/09 05:56:34;;;;;;;1.90;0.70;;;27.00;50.10;;;;;;10400061;28;20206;-29
2022/08/09 06:01:37;;;;;;;1.88;0.60;;;27.00;50.10;;;;;;10400220;28;20041;-33
2022/08/09 06:06:39;;;;;;;1.38;0.80;;;27.00;50.20;;;;;;10402534;28;20168;-28
2022/08/09 06:11:41;;;;;;;2.70;1.00;;;27.00;50.00;;;;;;10403680;28;20461;-30
2022/08/09 06:16:44;;;;;;;2.38;1.10;;;27.10;50.00;;;;;;10399690;28;20472;-32
2022/08/09 06:21:46;;;;;;;2.72;0.85;;;27.10;49.90;;;;;;10401471;28;20103;-32
2022/08/09 06:26:48;;;;;;;4.55;0.88;;;27.10;49.90;;;;;;10402748;28;20053;-32
2022/08/09 06:31:52;;;;;;;5.07;1.10;;;27.20;49.80;;;;;;10400838;28;20125;-28
2022/08/09 06:36:53;;;;;;;1.42;0.82;;;27.20;49.70;;;;;;10400571;28;20091;-31
2022/08/09 06:41:55;;;;;;;0.90;0.70;;;27.20;49.60;;;;;;10400116;28;20144;-29
2022/08/09 06:46:58;;;;;;;1.23;0.50;;;27.20;49.60;;;;;;10399703;28;20045;-33
2022/08/09 06:52:00;;;;;;;1.95;0.70;;;27.30;49.50;;;;;;10401775;28;20130;-30
2022/08/09 06:57:02;;;;;;;2.22;0.70;;;27.30;49.30;;;;;;10401689;28;20045;-28
2022/08/09 07:02:05;;;;;;;1.63;0.65;;;27.40;49.10;;;;;;10400592;28;20048;-30
2022/08/09 07:07:07;;;;;;;1.42;0.73;;;27.50;49.00;;;;;;10398832;28;20131;-31
2022/08/09 07:12:09;;;;;;;0.88;0.63;;;27.60;49.00;;;;;;10401618;28;20131;-28
2022/08/09 07:17:13;;;;;;;1.08;0.60;;;27.60;48.90;;;;;;10400927;28;20056;-28
2022/08/09 07:22:15;;;;;;;2.22;0.70;;;27.60;48.90;;;;;;10399255;28;20145;-30
2022/08/09 07:27:17;;;;;;;1.25;0.70;;;27.60;48.80;;;;;;10399893;28;20144;-30
2022/08/09 07:32:20;;;;;;;1.25;0.45;;;27.60;48.70;;;;;;10399787;28;20486;-30
2022/08/09 07:37:22;;;;;;;1.30;0.50;;;27.60;48.50;;;;;;10400190;28;20072;-40
2022/08/09 07:42:24;;;;;;;1.30;0.50;;;27.60;48.30;;;;;;10398168;28;20192;-27
2022/08/09 07:47:27;;;;;;;0.98;0.50;;;27.60;48.30;;;;;;10398165;28;20724;-28
2022/08/09 07:52:29;;;;;;;0.93;0.38;;;27.70;48.20;;;;;;10399151;28;20139;-30
2022/08/09 07:57:33;;;;;;;1.48;0.40;;;27.70;48.10;;;;;;10398463;28;20092;-30
2022/08/09 08:02:37;;;;;;;1.38;0.95;;;27.70;48.00;;;;;;10395937;28;20045;-31
2022/08/09 08:07:38;;;;;;;0.80;0.52;;;27.70;47.90;;;;;;10396997;28;20151;-28
2022/08/09 08:12:43;;;;;;;1.20;0.50;;;27.70;47.80;;;;;;10396448;28;20051;-28
2022/08/09 08:17:50;;;;;;;1.38;0.50;;;27.70;48.40;;;;;;10397622;28;20140;-30
2022/08/09 08:22:52;;;;;;;1.15;0.52;;;27.70;47.80;;;;;;10396856;28;20517;-27
2022/08/09 08:27:53;;;;;;;0.90;0.50;;;27.60;47.90;;;;;;10398256;28;20049;-29
2022/08/09 08:32:57;;;;;;;1.20;0.50;;;27.60;47.90;;;;;;10398866;28;20041;-29
2022/08/09 08:37:59;;;;;;;1.33;0.85;;;27.60;47.80;;;;;;10396107;28;20049;-28
2022/08/09 08:43:02;;;;;;;0.93;0.40;;;27.70;47.90;;;;;;10398015;28;20139;-27
2022/08/09 08:48:07;;;;;;;2.28;0.60;;;27.70;47.90;;;;;;10396810;28;20054;-31
2022/08/09 08:53:09;;;;;;;1.05;0.50;;;27.60;47.80;;;;;;10397456;28;20103;-28
2022/08/09 08:58:12;;;;;;;3.40;0.88;;;27.70;47.80;;;;;;10396925;28;20060;-28
2022/08/09 09:03:16;;;;;;;0.90;0.50;;;27.60;47.70;;;;;;10398435;28;20092;-29
2022/08/09 09:08:20;;;;;;;2.25;0.60;;;27.70;47.70;;;;;;10398419;28;20045;-28
2022/08/09 09:13:22;;;;;;;1.05;0.50;;;27.70;47.60;;;;;;10397928;28;20130;-27
2022/08/09 09:18:25;;;;;;;1.77;0.68;;;27.70;47.60;;;;;;10398163;28;20135;-30
2022/08/09 09:23:41;;;;;;;0.90;0.55;;;27.80;47.70;;;;;;10395854;28;20080;-28
2022/08/09 09:28:45;;;;;;;4.53;0.90;;;27.80;47.50;;;;;;10396459;28;20387;-29
2022/08/09 09:33:48;;;;;;;2.35;0.70;;;27.80;47.40;;;;;;10397591;28;20037;-30
2022/08/09 09:38:55;;;;;;;3.25;0.88;;;27.90;47.50;;;;;;10397593;28;20042;-27
2022/08/09 09:43:58;;;;;;;2.40;0.47;;;27.90;47.50;;;;;;10394110;28;20087;-28
2022/08/09 09:49:04;;;;;;;1.27;0.80;;;28.00;47.20;;;;;;10395696;28;20049;-27
2022/08/09 09:54:08;;;;;;;1.25;0.45;;;28.10;47.10;;;;;;10396509;28;20041;-32
2022/08/09 09:59:11;;;;;;;1.58;0.98;;;28.10;47.10;;;;;;10396109;28;20061;-30
2022/08/09 10:04:17;;;;;;;1.67;0.77;;;28.10;47.30;;;;;;10395895;28;20057;-29
2022/08/09 10:09:19;;;;;;;1.88;0.65;;;28.20;47.20;;;;;;10395410;28;20683;-33
2022/08/09 10:14:25;;;;;;;1.42;0.40;;;28.40;47.00;;;;;;10394673;28;20058;-28
2022/08/09 10:19:36;;;;;;;1.40;0.50;;;28.30;46.90;;;;;;10396248;28;20060;-26
2022/08/09 10:24:40;;;;;;;1.08;0.60;;;28.50;46.90;;;;;;10401341;28;20054;-29
2022/08/09 10:29:42;;;;;;;3.17;0.50;;;28.60;46.70;;;;;;10404260;28;20053;-27
2022/08/09 10:34:46;;;;;;;1.77;0.70;;;28.50;46.90;;;;;;10402124;28;20049;-29
2022/08/09 10:39:48;;;;;;;1.17;0.70;;;28.70;46.70;;;;;;10401674;28;20122;-32
2022/08/09 10:45:00;;;;;;;0.75;0.63;;;28.80;46.70;;;;;;10400505;28;20071;-29
2022/08/09 10:50:17;;;;;;;0.80;0.40;;;28.80;46.80;;;;;;10402451;28;20072;-27
2022/08/09 10:55:20;;;;;;;1.52;0.30;;;28.70;46.80;;;;;;10399419;28;20096;-30
2022/08/09 11:00:40;;;;;;;4.35;0.60;;;28.90;46.40;;;;;;10397017;28;20129;-31
2022/08/09 11:06:19;;;;;;;1.30;0.50;;;29.10;46.50;;;;;;10400897;28;20053;-29
2022/08/09 11:17:51;;;;;;;2.55;0.70;;;29.00;46.90;;;;;;10400382;28;20052;-33
2022/08/09 11:23:01;;;;;;;1.13;0.50;;;29.10;47.10;;;;;;10401820;28;20053;-29
2022/08/09 11:28:33;;;;;;;0.82;0.60;;;29.00;47.10;;;;;;10400194;28;20408;-32
2022/08/09 11:33:45;;;;;;;0.75;0.52;;;29.10;46.90;;;;;;10396439;28;20048;-29
2022/08/09 11:38:59;;;;;;;;;;;29.10;46.80;;;;;;10399265;28;20053;-35
2022/08/09 11:44:02;;;;;;;1.60;0.63;;;29.10;47.00;;;;;;10398179;28;19934;-32
2022/08/09 11:49:05;;;;;;;0.82;0.43;;;29.10;47.00;;;;;;10396181;28;20090;-28
2022/08/09 11:54:17;;;;;;;0.70;0.40;;;29.10;47.10;;;;;;10391481;28;20045;-30
2022/08/09 11:59:28;;;;;;;0.93;0.57;;;29.10;47.30;;;;;;10389543;28;20572;-30
2022/08/09 12:04:30;;;;;;;1.30;0.63;;;29.30;47.40;;;;;;10397096;28;20118;-28
2022/08/09 12:09:34;;;;;;;9.70;0.60;;;29.30;47.40;;;;;;10395482;28;20431;-28
2022/08/09 12:14:37;;;;;;;1.65;0.47;;;29.30;49.20;;;;;;10396235;28;20091;-30
2022/08/09 12:19:39;;;;;;;4.60;0.85;;;29.40;48.20;;;;;;10396595;28;20060;-27
2022/08/09 12:24:41;;;;;;;3.03;0.70;;;29.30;48.00;;;;;;10397811;28;20179;-30
2022/08/09 12:29:54;;;;;;;2.35;0.68;;;29.30;47.80;;;;;;10396296;28;20100;-28
2022/08/09 12:34:59;;;;;;;5.13;1.48;;;29.40;48.00;;;;;;10398834;28;20123;-36
2022/08/09 12:40:04;;;;;;;10.50;1.67;;;29.20;48.80;;;;;;10396456;28;20045;-34
2022/08/09 12:45:09;;;;;;;3.88;1.30;;;29.20;48.70;;;;;;10398528;28;20056;-29
2022/08/09 12:50:17;;;;;;;3.63;1.17;;;29.50;48.90;;;;;;10397777;28;20514;-30
2022/08/09 12:55:25;;;;;;;3.42;1.08;;;29.60;48.90;;;;;;10398992;28;20084;-32
2022/08/09 13:00:33;;;;;;;2.88;0.90;;;29.50;49.50;;;;;;10395434;28;20076;-30
2022/08/09 13:05:42;;;;;;;3.10;1.00;;;29.60;49.20;;;;;;10394520;28;20088;-30
2022/08/09 13:10:45;;;;;;;3.70;1.10;;;29.50;49.00;;;;;;10393960;28;20053;-30
2022/08/09 13:15:53;;;;;;;1.52;0.60;;;29.60;49.80;;;;;;10393931;28;20041;-29
2022/08/09 13:20:56;;;;;;;3.92;0.85;;;29.80;49.40;;;;;;10396558;28;20042;-27
2022/08/09 13:25:58;;;;;;;1.55;0.82;;;29.90;49.50;;;;;;10395668;28;21290;-33
2022/08/09 13:31:07;;;;;;;3.30;0.60;;;30.00;49.60;;;;;;10399155;28;20060;-30
2022/08/09 13:36:09;;;;;;;3.15;0.75;;;30.10;49.70;;;;;;10397860;28;20056;-35
2022/08/09 13:41:11;;;;;;;1.02;0.60;;;30.20;49.90;;;;;;10397929;28;20148;-28
2022/08/09 13:46:14;;;;;;;4.13;0.50;;;30.20;50.20;;;;;;10397009;28;20045;-30
2022/08/09 13:51:16;;;;;;;1.15;0.57;;;30.20;50.20;;;;;;10397767;28;20475;-32
2022/08/09 13:56:18;;;;;;;1.30;0.60;;;30.30;50.20;;;;;;10400151;28;20041;-32
2022/08/09 14:01:21;;;;;;;6.43;0.60;;;30.40;50.50;;;;;;10404157;28;20441;-28
2022/08/09 14:06:28;;;;;;;2.35;0.55;;;30.50;50.50;;;;;;10402683;28;20107;-31
2022/08/09 14:11:30;;;;;;;3.33;1.17;;;30.60;50.30;;;;;;10405834;28;20046;-29
2022/08/09 14:16:33;;;;;;;1.88;0.55;;;30.50;50.50;;;;;;10402330;28;20815;-30
2022/08/09 14:21:35;;;;;;;1.27;0.32;;;30.60;50.80;;;;;;10401081;28;20658;-30
2022/08/09 14:26:38;;;;;;;0.98;0.40;;;30.60;50.80;;;;;;10405038;28;20482;-35
2022/08/09 14:31:44;;;;;;;2.45;0.73;;;30.70;51.40;;;;;;10403313;28;20065;-35
2022/08/09 14:36:46;;;;;;;3.78;0.50;;;30.70;50.90;;;;;;10404707;28;20567;-31
2022/08/09 14:41:48;;;;;;;4.30;0.70;;;30.80;51.30;;;;;;10395532;28;20047;-36
2022/08/09 14:46:51;;;;;;;0.75;0.35;;;30.80;51.70;;;;;;10399374;28;20127;-33
2022/08/09 14:51:53;;;;;;;1.60;0.60;;;30.90;51.40;;;;;;10390664;28;20489;-32
2022/08/09 14:56:55;;;;;;;6.60;0.60;;;31.00;51.90;;;;;;10398635;28;20045;-28
2022/08/09 15:01:58;;;;;;;2.20;0.80;;;31.10;52.00;;;;;;10397319;28;20390;-30
2022/08/09 15:07:00;;;;;;;1.25;0.30;;;31.20;52.20;;;;;;10398092;28;20038;-33
2022/08/09 15:12:02;;;;;;;4.20;0.85;;;31.10;51.80;;;;;;10404772;28;20463;-31
2022/08/09 15:17:08;;;;;;;1.27;0.35;;;30.90;49.50;;;;;;10402336;28;20073;-28
2022/08/09 15:22:10;;;;;;;2.92;0.77;;;29.20;51.10;;;;;;10401488;28;20042;-30
2022/08/09 15:27:12;;;;;;;4.53;0.63;;;28.60;51.70;;;;;;10402131;28;20053;-31
2022/08/09 15:32:15;;;;;;;3.22;0.60;;;28.80;51.50;;;;;;10400283;28;20041;-35
2022/08/09 15:37:37;;;;;;;3.35;0.60;;;29.00;55.10;;;;;;10391920;28;20144;-33
2022/08/09 15:42:40;;;;;;;4.32;0.55;;;30.10;55.20;;;;;;10397158;28;20137;-33
2022/08/09 15:47:44;;;;;;;7.85;0.80;;;30.60;55.50;;;;;;10398769;28;20089;-31
2022/08/09 15:52:46;;;;;;;3.33;0.82;;;30.80;54.50;;;;;;10398327;28;20049;-29
2022/08/09 15:57:49;;;;;;;6.90;0.73;;;30.90;54.20;;;;;;10394490;28;20123;-27
2022/08/09 16:02:54;;;;;;;1.25;0.55;;;31.10;54.20;;;;;;10393596;28;20053;-33
2022/08/09 16:07:56;;;;;;;1.65;0.45;;;31.20;54.30;;;;;;10398376;28;20050;-30
2022/08/09 16:12:58;;;;;;;2.88;0.75;;;31.20;54.90;;;;;;10397568;28;20069;-30
2022/08/09 16:18:03;;;;;;;2.05;0.80;;;31.30;54.60;;;;;;10396056;28;20048;-29
2022/08/09 16:23:05;;;;;;;2.60;0.70;;;31.40;54.40;;;;;;10394655;28;20044;-30
2022/08/09 16:28:07;;;;;;;3.20;0.80;;;31.40;55.60;;;;;;10397900;28;20093;-35
2022/08/09 16:33:10;;;;;;;1.80;0.93;;;31.60;55.50;;;;;;10398448;28;20060;-30
2022/08/09 16:38:12;;;;;;;6.22;0.75;;;31.70;55.90;;;;;;10396091;28;20045;-33
2022/08/09 16:43:14;;;;;;;6.22;0.98;;;31.70;56.00;;;;;;10395837;28;20072;-29
2022/08/09 16:48:17;;;;;;;1.98;0.90;;;31.70;56.40;;;;;;10394143;28;20056;-32
2022/08/09 16:53:21;;;;;;;2.20;0.85;;;31.70;55.70;;;;;;10390228;28;20455;-36
2022/08/09 16:58:23;;;;;;;3.67;0.88;;;31.80;55.70;;;;;;10393819;28;20124;-32
2022/08/09 17:03:26;;;;;;;5.72;0.60;;;31.80;55.50;;;;;;10396482;28;20127;-32
2022/08/09 17:08:28;;;;;;;1.52;0.80;;;31.80;55.40;;;;;;10397010;28;20049;-32
2022/08/09 17:13:30;;;;;;;2.80;0.95;;;31.90;56.40;;;;;;10396037;28;20037;-27
2022/08/09 17:18:34;;;;;;;2.92;0.75;;;31.80;54.40;;;;;;10395803;28;20076;-34
2022/08/09 17:23:36;;;;;;;5.78;1.10;;;31.00;51.50;;;;;;10394283;28;20430;-42
2022/08/09 17:28:37;;;;;;;5.35;1.00;;;31.10;52.90;;;;;;10384348;28;20088;-43
2022/08/09 17:33:41;;;;;;;1.98;0.70;;;31.40;53.30;;;;;;10381528;28;20467;-42
2022/08/09 17:38:43;;;;;;;3.25;1.10;;;31.60;53.40;;;;;;10395937;28;20073;-46
2022/08/09 17:43:44;;;;;;;3.73;1.57;;;31.50;52.80;;;;;;10356567;28;1118280;-42
2022/08/09 17:48:47;;;;;;;1.77;0.70;;;31.60;53.20;;;;;;10397849;28;20496;-40
2022/08/09 17:53:51;;;;;;;2.30;0.63;;;31.60;53.00;;;;;;10396097;28;20096;-42
2022/08/09 17:58:53;;;;;;;0.95;0.50;;;31.60;52.90;;;;;;10385060;28;20111;-42
2022/08/09 18:03:56;;;;;;;2.58;0.50;;;31.60;52.80;;;;;;10389718;28;20793;-42
2022/08/09 18:08:58;;;;;;;2.53;0.60;;;31.60;53.00;;;;;;10394039;28;20088;-38
2022/08/09 18:14:00;;;;;;;1.42;0.40;;;31.60;52.20;;;;;;10396119;28;20037;-45
2022/08/09 18:19:04;;;;;;;1.58;0.52;;;31.60;52.40;;;;;;10394863;28;20049;-40
2022/08/09 18:24:06;;;;;;;3.78;0.80;;;31.60;52.10;;;;;;10393407;28;20049;-39
2022/08/09 18:29:09;;;;;;;2.58;0.85;;;31.60;52.00;;;;;;10388840;28;20056;-42
2022/08/09 18:34:12;;;;;;;3.67;0.90;;;31.60;52.00;;;;;;10396960;28;20057;-45
2022/08/09 18:39:14;;;;;;;1.45;0.50;;;31.60;51.90;;;;;;10387380;28;20057;-43
2022/08/09 18:44:15;;;;;;;0.70;0.40;;;31.70;52.30;;;;;;10391985;28;20056;-40
2022/08/09 18:49:19;;;;;;;1.80;0.50;;;31.70;52.10;;;;;;10401143;28;20099;-42
2022/08/09 18:54:21;;;;;;;0.77;0.50;;;31.70;52.00;;;;;;10398008;28;20124;-41
2022/08/09 18:59:22;;;;;;;1.33;0.55;;;31.70;51.90;;;;;;10401533;28;20115;-42
2022/08/09 19:04:26;;;;;;;2.42;0.57;;;31.60;51.50;;;;;;10397449;28;20045;-43
2022/08/09 19:09:27;;;;;;;1.00;0.50;;;31.60;52.00;;;;;;10390388;28;20045;-44
2022/08/09 19:14:29;;;;;;;1.67;0.70;;;31.60;51.20;;;;;;10398387;28;20124;-43
2022/08/09 19:19:32;;;;;;;2.55;0.50;;;31.50;51.00;;;;;;10400114;28;20482;-43
2022/08/09 19:24:35;;;;;;;1.70;0.60;;;31.50;50.90;;;;;;10403147;28;20068;-39
2022/08/09 19:29:38;;;;;;;1.92;0.77;;;31.50;50.90;;;;;;10399997;28;20134;-45
2022/08/09 19:34:41;;;;;;;2.85;0.73;;;31.50;50.70;;;;;;10400658;28;20050;-43
2022/08/09 19:39:43;;;;;;;1.85;0.70;;;31.50;50.70;;;;;;10401938;28;20053;-42
2022/08/09 19:44:45;;;;;;;4.63;0.93;;;31.40;50.40;;;;;;10398623;28;20064;-43
2022/08/09 19:49:48;;;;;;;3.90;0.88;;;31.40;50.40;;;;;;10399882;28;20141;-43
2022/08/09 19:54:50;;;;;;;5.75;1.10;;;31.30;50.30;;;;;;10398402;28;20073;-41
2022/08/09 19:59:52;;;;;;;5.90;1.23;;;31.40;50.20;;;;;;10399920;28;20478;-41
2022/08/09 20:04:55;;;;;;;3.95;1.00;;;31.30;50.10;;;;;;10397589;28;20041;-43
2022/08/09 20:09:57;;;;;;;4.07;1.42;;;31.20;49.90;;;;;;10398342;28;20565;-39
2022/08/09 20:14:59;;;;;;;4.53;0.90;;;31.30;49.90;;;;;;10398926;28;20046;-43
2022/08/09 20:20:02;;;;;;;4.63;0.95;;;31.20;49.70;;;;;;10399146;28;20065;-43
2022/08/09 20:25:04;;;;;;;4.10;1.05;;;31.20;49.70;;;;;;10399170;28;20045;-42
2022/08/09 20:30:07;;;;;;;6.20;0.82;;;31.10;49.60;;;;;;10396576;28;20068;-38
2022/08/09 20:35:10;;;;;;;1.23;0.60;;;31.10;49.60;;;;;;10393180;28;20478;-43
2022/08/09 20:40:13;;;;;;;2.00;0.52;;;31.10;49.60;;;;;;10396585;28;20077;-44
2022/08/09 20:45:15;;;;;;;2.25;0.75;;;31.10;49.60;;;;;;10399383;28;20140;-38
2022/08/09 20:50:19;;;;;;;1.92;0.63;;;31.00;49.60;;;;;;10399556;28;20048;-42
2022/08/09 20:55:20;;;;;;;1.23;0.57;;;31.00;49.60;;;;;;10399104;28;20033;-43
2022/08/09 21:00:22;;;;;;;2.95;0.50;;;31.00;49.60;;;;;;10399053;28;20139;-43
2022/08/09 21:05:26;;;;;;;1.35;0.60;;;30.90;49.70;;;;;;10398341;28;20049;-45
2022/08/09 21:10:28;;;;;;;1.48;0.50;;;30.90;49.70;;;;;;10396796;28;20622;-41
2022/08/09 21:15:30;;;;;;;3.10;0.63;;;30.90;49.60;;;;;;10396799;28;20045;-45
2022/08/09 21:20:34;;;;;;;2.35;1.08;;;30.90;49.70;;;;;;10398206;28;20391;-42
2022/08/09 21:25:51;;;;;;;0.32;0.30;;;30.80;49.60;;;;;;10394102;28;20128;-38
2022/08/09 21:30:53;;;;;;;1.15;0.40;;;30.80;49.60;;;;;;10393431;28;20073;-43
2022/08/09 21:35:56;;;;;;;0.93;0.63;;;30.80;49.80;;;;;;10391766;28;20141;-43
2022/08/09 21:40:58;;;;;;;2.15;0.43;;;30.70;49.60;;;;;;10395921;28;20140;-42
2022/08/09 21:46:00;;;;;;;0.85;0.45;;;30.70;49.70;;;;;;10375855;28;20041;-39
2022/08/09 21:51:04;;;;;;;0.43;0.30;;;30.60;49.50;;;;;;10395289;28;20128;-44
2022/08/09 21:56:06;;;;;;;2.90;0.57;;;30.60;49.60;;;;;;10391085;28;20462;-44
2022/08/09 22:01:08;;;;;;;0.60;0.50;;;30.60;49.60;;;;;;10392691;28;20135;-44
2022/08/09 22:06:11;;;;;;;0.30;0.30;;;30.50;49.60;;;;;;10393535;28;20085;-45
2022/08/09 22:11:13;;;;;;;0.50;0.35;;;30.50;49.60;;;;;;10394159;28;20082;-41
2022/08/09 22:16:15;;;;;;;2.72;0.40;;;30.40;49.60;;;;;;10401851;28;20084;-44
2022/08/09 22:21:18;;;;;;;0.50;0.30;;;30.40;49.70;;;;;;10403603;28;20084;-41
2022/08/09 22:26:20;;;;;;;0.90;0.30;;;30.30;49.60;;;;;;10403824;28;20796;-39
2022/08/09 22:31:22;;;;;;;0.98;0.35;;;30.30;49.60;;;;;;10401803;28;20074;-41
2022/08/09 22:36:25;;;;;;;1.30;0.50;;;30.30;49.60;;;;;;10400116;28;20448;-44
2022/08/09 22:41:27;;;;;;;1.27;0.30;;;30.30;49.70;;;;;;10401835;28;20054;-38
2022/08/09 22:46:29;;;;;;;1.77;0.60;;;30.30;49.70;;;;;;10400810;28;20095;-39
2022/08/09 22:51:32;;;;;;;2.63;0.30;;;30.20;49.60;;;;;;10395603;28;20042;-44
2022/08/09 22:56:34;;;;;;;0.90;0.40;;;30.20;49.70;;;;;;10397600;28;20148;-43
2022/08/09 23:01:37;;;;;;;0.57;0.40;;;30.10;49.60;;;;;;10397572;28;20419;-41
2022/08/09 23:12:00;;;;;;;1.00;0.25;;;30.00;49.50;;;;;;10399921;28;20049;-45
2022/08/09 23:17:02;;;;;;;1.65;0.30;;;29.90;49.50;;;;;;10401983;28;20084;-42
2022/08/09 23:22:05;;;;;;;0.47;0.40;;;30.00;49.70;;;;;;10403449;28;20132;-41
2022/08/09 23:27:07;;;;;;;0.70;0.30;;;29.90;49.60;;;;;;10401006;28;20129;-43
2022/08/09 23:32:09;;;;;;;0.70;0.38;;;29.90;49.60;;;;;;10401775;28;20061;-43
2022/08/09 23:37:12;;;;;;;0.30;0.30;;;29.90;49.70;;;;;;10401649;28;20136;-42
2022/08/09 23:42:14;;;;;;;0.75;0.38;;;29.80;49.80;;;;;;10400118;28;20546;-42
2022/08/09 23:47:16;;;;;;;0.52;0.30;;;29.70;49.70;;;;;;10402234;28;20146;-42
2022/08/09 23:52:19;;;;;;;0.55;0.35;;;29.70;49.70;;;;;;10400277;28;20065;-43
2022/08/09 23:57:21;;;;;;;0.30;0.25;;;29.70;49.70;;;;;;10398816;28;20115;-43
